CSCL Long Beach — VRCZ7 — position and weather

sailwx.info

Track history (hours):
 
Tides and Currents Weather Stations Pressure Air Temp Water Temp Dewpoint Dewpoint Depression Visibility Wind Speed Wind Dir Waves Ship Positions

CSCL Long Beach

Last reported at 2017-Aug-19 12:13 UTC. Time now 2017-Aug-19 13:17 UTC.
Position N 38°34' W 124°05'.

Length 336.7 m; beam 45.6 m; draft 15 m.

Type: Ship. MMSI: 477883900.

Date/timePositionNaut miles runAvg speedWind from/ knotsBaromVisibWave heightAir tempDewpointWater temp
2017-Aug-19 12:13N 38°34' W 124°05'312.6
2017-Aug-19 12:00N 38°31' W 124°04'713.0
2017-Aug-19 11:30N 38°25' W 124°01'713.2
2017-Aug-19 11:00N 38°19' W 123°59'713.3
2017-Aug-19 10:30N 38°13' W 123°57'713.5
2017-Aug-19 10:00N 38°06' W 123°54'713.3
2017-Aug-19 09:30N 37°60' W 123°52'713.0
2017-Aug-19 09:00N 37°53' W 123°50'713.5
2017-Aug-19 08:30N 37°47' W 123°48'713.5
2017-Aug-19 08:00N 37°40' W 123°45'713.3
2017-Aug-19 07:30N 37°34' W 123°43'713.1
2017-Aug-19 07:00N 37°28' W 123°41'612.9
2017-Aug-19 06:30N 37°21' W 123°39'613.0
2017-Aug-19 06:00N 37°15' W 123°37'612.9
2017-Aug-19 05:30N 37°09' W 123°35'812.6
2017-Aug-19 04:51N 37°01' W 123°30'513.5
2017-Aug-19 04:30N 36°58' W 123°27'713.5
2017-Aug-19 04:00N 36°53' W 123°21'713.3
2017-Aug-19 03:29N 36°48' W 123°15'613.4
2017-Aug-19 03:00N 36°43' W 123°10'713.4
2017-Aug-19 02:30N 36°38' W 123°05'713.2
2017-Aug-19 02:00N 36°33' W 122°60'712.9
2017-Aug-19 01:30N 36°27' W 122°55'612.8
2017-Aug-19 01:00N 36°22' W 122°50'712.9
2017-Aug-19 00:28N 36°17' W 122°44'613.0
2017-Aug-19 00:00N 36°12' W 122°39'612.6
2017-Aug-18 23:30N 36°07' W 122°35'612.5
2017-Aug-18 23:00N 36°03' W 122°30'612.4
2017-Aug-18 22:30N 35°58' W 122°25'812.7
2017-Aug-18 21:52N 35°52' W 122°18'1013.0
2017-Aug-18 21:07N 35°44' W 122°11'213.2
2017-Aug-18 21:00N 35°43' W 122°10'613.1
2017-Aug-18 20:30N 35°38' W 122°05'813.4
2017-Aug-18 19:56N 35°32' W 121°58'613.2
2017-Aug-18 19:30N 35°28' W 121°54'2013.2
2017-Aug-18 18:01N 35°13' W 121°39'413.3
2017-Aug-18 17:43N 35°10' W 121°35'413.3
2017-Aug-18 17:25N 35°07' W 121°32'613.5
2017-Aug-18 16:59N 35°02' W 121°28'713.3
2017-Aug-18 16:30N 34°57' W 121°23'713.4
2017-Aug-18 16:00N 34°52' W 121°18'713.5
2017-Aug-18 15:30N 34°47' W 121°12'713.2
2017-Aug-18 15:00N 34°42' W 121°07'713.0
2017-Aug-18 14:29N 34°36' W 121°02'1313.3
2017-Aug-18 13:30N 34°27' W 120°52'510.1
2017-Aug-18 13:00N 34°25' W 120°46'5 9.5
2017-Aug-18 12:28N 34°24' W 120°40'5 9.8
2017-Aug-18 11:59N 34°22' W 120°34'5 9.9
2017-Aug-18 11:30N 34°21' W 120°29'5 9.7
2017-Aug-18 11:00N 34°20' W 120°23'5 9.5
2017-Aug-18 10:30N 34°19' W 120°17'5 9.6
2017-Aug-18 10:00N 34°17' W 120°12'5 9.7
2017-Aug-18 09:30N 34°16' W 120°06'5 9.8
2017-Aug-18 09:00N 34°15' W 120°00'5 9.7
2017-Aug-18 08:30N 34°14' W 119°55'5 9.5
2017-Aug-18 08:01N 34°12' W 119°49'5 9.6
2017-Aug-18 07:30N 34°11' W 119°44'5 9.6
2017-Aug-18 07:00N 34°10' W 119°38'5 9.3
2017-Aug-18 06:30N 34°08' W 119°33'5 9.7
2017-Aug-18 06:00N 34°07' W 119°27'5 9.2
2017-Aug-18 05:30N 34°06' W 119°22'5 9.9
2017-Aug-18 05:00N 34°04' W 119°16'510.2
2017-Aug-18 04:30N 34°02' W 119°11'510.7
2017-Aug-18 04:00N 33°59' W 119°05'511.0
2017-Aug-18 03:30N 33°57' W 118°59'510.6
2017-Aug-18 03:00N 33°54' W 118°54'510.8
2017-Aug-18 02:30N 33°52' W 118°48'510.7
2017-Aug-18 02:00N 33°49' W 118°42'510.4
2017-Aug-18 01:30N 33°46' W 118°37'510.6
2017-Aug-18 01:00N 33°43' W 118°32'611.4
2017-Aug-18 00:30N 33°41' W 118°26'510.8
2017-Aug-18 00:00N 33°38' W 118°20'510.8
2017-Aug-17 23:30N 33°38' W 118°13'4 8.7
2017-Aug-17 23:00N 33°42' W 118°11'2 4.4
2017-Aug-17 22:30N 33°44' W 118°12'0 0.1
2017-Aug-17 21:57N 33°44' W 118°12'0 0.0
2017-Aug-17 21:30N 33°44' W 118°12'0 0.0
2017-Aug-17 21:00N 33°44' W 118°12'0 0.0
2017-Aug-17 20:30N 33°44' W 118°12'0 0.0
2017-Aug-17 20:00N 33°44' W 118°12'0 0.0
2017-Aug-17 19:30N 33°44' W 118°12'0 0.0
2017-Aug-17 18:51N 33°44' W 118°12'0 0.0
2017-Aug-17 18:30N 33°44' W 118°12'0 0.0
2017-Aug-17 17:57N 33°44' W 118°12'0 0.0
2017-Aug-17 17:21N 33°44' W 118°12'0 0.0
2017-Aug-17 17:00N 33°44' W 118°12'0 0.0
2017-Aug-17 16:30N 33°44' W 118°12'0 0.0
2017-Aug-17 16:00N 33°44' W 118°12'0 0.0
2017-Aug-17 15:30N 33°44' W 118°12'0 0.0
2017-Aug-17 14:51N 33°44' W 118°12'0 0.0
2017-Aug-17 14:30N 33°44' W 118°12'0 0.0
2017-Aug-17 14:00N 33°44' W 118°12'0 0.0
2017-Aug-17 13:27N 33°44' W 118°12'0 0.0
2017-Aug-17 13:00N 33°44' W 118°12'0 0.0
2017-Aug-17 12:27N 33°44' W 118°12'0 0.0
2017-Aug-17 12:00N 33°44' W 118°12'0 0.0
2017-Aug-17 11:30N 33°44' W 118°12'0 0.0
2017-Aug-17 10:57N 33°44' W 118°12'0 0.0
2017-Aug-17 10:30N 33°44' W 118°12'0 0.0
2017-Aug-17 10:00N 33°44' W 118°12'0 0.0
2017-Aug-17 09:30N 33°44' W 118°12'0 0.0
2017-Aug-17 08:54N 33°44' W 118°12'0 0.0
2017-Aug-17 08:27N 33°44' W 118°12'0 0.0
2017-Aug-17 08:00N 33°44' W 118°12'0 0.0
2017-Aug-17 07:30N 33°44' W 118°12'0 0.0
2017-Aug-17 06:57N 33°44' W 118°12'0 0.0
2017-Aug-17 06:30N 33°44' W 118°12'0 0.0
2017-Aug-17 06:00N 33°44' W 118°12'0 0.0
2017-Aug-17 05:30N 33°44' W 118°12'0 0.0
2017-Aug-17 04:57N 33°44' W 118°12'0 0.0
2017-Aug-17 04:27N 33°44' W 118°12'0 0.0
2017-Aug-17 04:00N 33°44' W 118°12'0 0.0
2017-Aug-17 03:30N 33°44' W 118°12'0 0.0
2017-Aug-17 03:00N 33°44' W 118°12'0 0.0
2017-Aug-17 02:30N 33°44' W 118°12'0 0.0
2017-Aug-17 02:00N 33°44' W 118°12'0 0.0
2017-Aug-17 01:30N 33°44' W 118°12'0 0.0
2017-Aug-17 01:00N 33°44' W 118°12'0 0.0
2017-Aug-17 00:30N 33°44' W 118°12'0 0.0
2017-Aug-16 23:57N 33°44' W 118°12'0 0.0
2017-Aug-16 23:21N 33°44' W 118°12'0 0.0
2017-Aug-16 23:00N 33°44' W 118°12'0 0.0
2017-Aug-16 22:30N 33°44' W 118°12'0 0.0
2017-Aug-16 21:57N 33°44' W 118°12'0 0.0
2017-Aug-16 21:27N 33°44' W 118°12'0 0.0
2017-Aug-16 20:57N 33°44' W 118°12'0 0.0
2017-Aug-16 20:27N 33°44' W 118°12'0 0.0
2017-Aug-16 19:12N 33°44' W 118°12'0 0.1
2017-Aug-16 19:00N 33°44' W 118°12'0 0.0
2017-Aug-16 18:27N 33°44' W 118°12'0 0.0
2017-Aug-16 17:39N 33°44' W 118°12'0 0.0
2017-Aug-16 17:09N 33°44' W 118°12'0 0.0
2017-Aug-16 16:57N 33°44' W 118°12'0 0.0
2017-Aug-16 16:15N 33°44' W 118°12'0 0.0
2017-Aug-16 15:57N 33°44' W 118°12'0 0.0
2017-Aug-16 15:27N 33°44' W 118°12'0 0.0
2017-Aug-16 14:57N 33°44' W 118°12'0 0.0
2017-Aug-16 14:30N 33°44' W 118°12'0 0.0
2017-Aug-16 13:57N 33°44' W 118°12'0 0.0
2017-Aug-16 13:30N 33°44' W 118°12'0 0.0
2017-Aug-16 13:00N 33°44' W 118°12'0 0.0
2017-Aug-16 12:30N 33°44' W 118°12'0 0.0
2017-Aug-16 12:00N 33°44' W 118°12'0 0.0
2017-Aug-16 11:27N 33°44' W 118°12'0 0.0
2017-Aug-16 11:00N 33°44' W 118°12'0 0.0
2017-Aug-16 10:30N 33°44' W 118°12'0 0.0
2017-Aug-16 09:54N 33°44' W 118°12'0 0.0
2017-Aug-16 09:30N 33°44' W 118°12'0 0.0
2017-Aug-16 09:00N 33°44' W 118°12'0 0.0
2017-Aug-16 08:30N 33°44' W 118°12'0 0.0
2017-Aug-16 08:00N 33°44' W 118°12'0 0.0
2017-Aug-16 07:27N 33°44' W 118°12'0 0.0
2017-Aug-16 06:42N 33°44' W 118°12'0 0.0
2017-Aug-16 06:30N 33°44' W 118°12'0 0.0
2017-Aug-16 05:57N 33°44' W 118°12'0 0.0
2017-Aug-16 05:30N 33°44' W 118°12'0 0.0
2017-Aug-16 05:00N 33°44' W 118°12'0 0.0
2017-Aug-16 04:30N 33°44' W 118°12'0 0.0
2017-Aug-16 04:00N 33°44' W 118°12'0 0.0
2017-Aug-16 03:30N 33°44' W 118°12'0 0.0
2017-Aug-16 03:00N 33°44' W 118°12'0 0.0
2017-Aug-16 02:30N 33°44' W 118°12'0 0.0
2017-Aug-16 02:00N 33°44' W 118°12'0 0.0
2017-Aug-16 01:30N 33°44' W 118°12'0 0.0
2017-Aug-16 01:00N 33°44' W 118°12'0 0.0
2017-Aug-16 00:30N 33°44' W 118°12'0 0.0
2017-Aug-16 00:00N 33°44' W 118°12'0 0.0
2017-Aug-15 23:18N 33°44' W 118°12'0 0.0
2017-Aug-15 23:00N 33°44' W 118°12'0 0.0
2017-Aug-15 21:51N 33°44' W 118°12'0 0.0
2017-Aug-15 21:24N 33°44' W 118°12'0 0.0
2017-Aug-15 21:00N 33°44' W 118°12'0 0.0
2017-Aug-15 20:27N 33°44' W 118°12'0 0.0
2017-Aug-15 20:00N 33°44' W 118°12'0 0.1
2017-Aug-15 19:21N 33°44' W 118°12'0 0.1
2017-Aug-15 18:57N 33°44' W 118°12'0 0.0
2017-Aug-15 18:27N 33°44' W 118°12'0 0.0
2017-Aug-15 18:00N 33°44' W 118°12'0 0.1
2017-Aug-15 17:27N 33°44' W 118°12'0 0.1
2017-Aug-15 17:00N 33°44' W 118°12'0 0.0
2017-Aug-15 16:27N 33°44' W 118°12'0 0.0
2017-Aug-15 16:00N 33°44' W 118°12'0 0.0
2017-Aug-15 15:30N 33°44' W 118°12'0 0.0
2017-Aug-15 14:06N 33°44' W 118°12'0 0.1
2017-Aug-15 14:00N 33°44' W 118°12'0 0.0
2017-Aug-15 12:30N 33°44' W 118°12'0 0.0
2017-Aug-15 11:51N 33°44' W 118°12'0 0.0
2017-Aug-15 11:18N 33°44' W 118°12'0 0.0
2017-Aug-15 10:51N 33°44' W 118°12'0 0.0
2017-Aug-15 10:30N 33°44' W 118°12'0 0.0
2017-Aug-15 09:57N 33°44' W 118°12'0 0.0
2017-Aug-15 09:27N 33°44' W 118°12'0 0.0
2017-Aug-15 08:45N 33°44' W 118°12'0 0.0
2017-Aug-15 08:27N 33°44' W 118°12'0 0.0
2017-Aug-15 07:45N 33°44' W 118°12'0 0.0
2017-Aug-15 06:39N 33°44' W 118°12'0 0.0
2017-Aug-15 06:27N 33°44' W 118°12'0 0.0
2017-Aug-15 05:57N 33°44' W 118°12'0 0.0
2017-Aug-15 05:27N 33°44' W 118°12'0 0.0
2017-Aug-15 04:57N 33°44' W 118°12'0 0.0
2017-Aug-15 04:30N 33°44' W 118°12'0 0.0
2017-Aug-15 03:57N 33°44' W 118°12'0 0.0
2017-Aug-15 03:21N 33°44' W 118°12'0 0.0
2017-Aug-15 02:51N 33°44' W 118°12'0 0.0
2017-Aug-15 02:21N 33°44' W 118°12'0 0.0
2017-Aug-15 01:57N 33°44' W 118°12'0 0.0
2017-Aug-15 01:30N 33°44' W 118°12'0 0.0
2017-Aug-15 01:00N 33°44' W 118°12'0 0.0
2017-Aug-15 00:30N 33°44' W 118°12'0 0.0
2017-Aug-15 00:00N 33°44' W 118°12'0 0.0
2017-Aug-14 23:30N 33°44' W 118°12'0 0.0
2017-Aug-14 23:00N 33°44' W 118°12'0 0.0
2017-Aug-14 22:30N 33°44' W 118°12'0 0.0
2017-Aug-14 22:00N 33°44' W 118°12'0 0.0
2017-Aug-14 21:30N 33°44' W 118°12'0 0.0
2017-Aug-14 21:00N 33°44' W 118°12'0 0.0
2017-Aug-14 20:30N 33°44' W 118°12'0 0.0
2017-Aug-14 20:00N 33°44' W 118°12'0 0.0
2017-Aug-14 19:30N 33°44' W 118°12'0 0.0
2017-Aug-14 19:00N 33°44' W 118°12'0 0.0
2017-Aug-14 18:30N 33°44' W 118°12'0 0.0
2017-Aug-14 18:00N 33°44' W 118°12'0 0.0
2017-Aug-14 17:27N 33°44' W 118°12'0 0.0
2017-Aug-14 17:00N 33°44' W 118°12'0 0.0
2017-Aug-14 16:30N 33°44' W 118°12'0 0.0
2017-Aug-14 16:00N 33°44' W 118°12'0 0.0
2017-Aug-14 15:27N 33°44' W 118°12'0 0.0
2017-Aug-14 14:57N 33°44' W 118°12'0 0.0
2017-Aug-14 14:21N 33°44' W 118°12'0 0.0
2017-Aug-14 14:00N 33°44' W 118°12'0 0.0
2017-Aug-14 13:30N 33°44' W 118°12'0 0.0
2017-Aug-14 13:00N 33°44' W 118°12'0 0.0
2017-Aug-14 12:30N 33°44' W 118°12'1 1.1
2017-Aug-14 12:00N 33°44' W 118°12'3 6.4
2017-Aug-14 11:30N 33°41' W 118°11'4 7.9
2017-Aug-14 11:00N 33°37' W 118°12'4 7.1
2017-Aug-14 10:30N 33°35' W 118°14'2 4.9
2017-Aug-14 10:00N 33°33' W 118°17'0 0.4
2017-Aug-14 09:30N 33°33' W 118°17'3 6.3
2017-Aug-14 09:00N 33°35' W 118°20'4 8.3
2017-Aug-14 08:30N 33°37' W 118°24'4 8.0
2017-Aug-14 08:00N 33°40' W 118°28'4 7.8
2017-Aug-14 07:30N 33°42' W 118°32'4 7.7
2017-Aug-14 07:00N 33°44' W 118°36'4 7.9
2017-Aug-14 06:30N 33°46' W 118°40'4 7.9
2017-Aug-14 06:00N 33°47' W 118°44'4 8.2
2017-Aug-14 05:30N 33°49' W 118°49'4 8.3
2017-Aug-14 05:00N 33°51' W 118°53'4 8.3
2017-Aug-14 04:30N 33°53' W 118°57'4 8.5
2017-Aug-14 04:00N 33°55' W 119°02'4 8.7
2017-Aug-14 03:30N 33°58' W 119°06'5 9.9
2017-Aug-14 03:00N 34°00' W 119°12'510.2
2017-Aug-14 02:30N 34°02' W 119°17'510.0
2017-Aug-14 02:00N 34°04' W 119°23'5 9.9
2017-Aug-14 01:30N 34°05' W 119°29'5 9.6
2017-Aug-14 01:00N 34°06' W 119°34'5 9.6
2017-Aug-14 00:30N 34°08' W 119°40'5 9.7
2017-Aug-14 00:00N 34°09' W 119°45'5 9.5
2017-Aug-13 23:30N 34°10' W 119°51'5 9.7
2017-Aug-13 23:00N 34°11' W 119°57'5 9.7
2017-Aug-13 22:30N 34°13' W 120°02'5 9.6
2017-Aug-13 22:00N 34°14' W 120°08'5 9.6
2017-Aug-13 21:30N 34°15' W 120°14'5 9.4
2017-Aug-13 21:00N 34°17' W 120°19'5 9.7
2017-Aug-13 20:30N 34°18' W 120°25'5 9.5
2017-Aug-13 20:00N 34°19' W 120°30'5 9.1
2017-Aug-13 19:30N 34°20' W 120°36'5 9.3
2017-Aug-13 19:00N 34°22' W 120°41'5 9.2
2017-Aug-13 18:30N 34°23' W 120°46'5 9.5
2017-Aug-13 18:00N 34°24' W 120°52'5 9.7
2017-Aug-13 17:28N 34°24' W 120°58'4 9.8
2017-Aug-13 17:00N 34°25' W 121°04'3 6.3
2017-Aug-13 16:30N 34°25' W 121°08'1 2.0
2017-Aug-13 16:00N 34°24' W 121°08'917.0
2017-Aug-13 15:30N 34°25' W 121°18'917.8
2017-Aug-13 15:00N 34°25' W 121°29'917.9
2017-Aug-13 14:31N 34°25' W 121°40'918.2
2017-Aug-13 14:00N 34°25' W 121°51'918.2
2017-Aug-13 13:31N 34°25' W 122°02'1017.9
2017-Aug-13 12:57N 34°26' W 122°14'817.9
2017-Aug-13 12:30N 34°26' W 122°23'918.1
2017-Aug-13 12:00N 34°26' W 122°35'918.0
2017-Aug-13 11:30N 34°26' W 122°45'918.1
2017-Aug-13 11:00N 34°26' W 122°56'918.1
2017-Aug-13 10:30N 34°26' W 123°08'918.0
2017-Aug-13 09:59N 34°26' W 123°19'817.8
2017-Aug-13 09:30N 34°26' W 123°29'918.0
2017-Aug-13 09:00N 34°26' W 123°40'1017.8
2017-Aug-13 08:25N 34°26' W 123°53'717.8
2017-Aug-13 08:00N 34°26' W 124°01'917.7
2017-Aug-13 07:30N 34°26' W 124°12'917.6
2017-Aug-13 07:00N 34°26' W 124°23'1017.8
2017-Aug-13 06:27N 34°27' W 124°35'817.6
2017-Aug-13 06:01N 34°27' W 124°44'917.9
2017-Aug-13 05:29N 34°27' W 124°56'917.9
2017-Aug-13 04:58N 34°28' W 125°07'818.3
2017-Aug-13 04:30N 34°28' W 125°17'1218.3
2017-Aug-13 03:52N 34°34' W 125°29'1518.5
2017-Aug-13 03:02N 34°43' W 125°45'618.1
2017-Aug-13 02:41N 34°46' W 125°51'918.1
2017-Aug-13 02:11N 34°51' W 126°00'618.5
2017-Aug-13 01:51N 34°55' W 126°06'1419.1
2017-Aug-13 01:09N 35°03' W 126°19'1519.0
2017-Aug-13 00:23N 35°12' W 126°33'1418.9
2017-Aug-12 23:39N 35°20' W 126°47'319.2
2017-Aug-12 23:29N 35°22' W 126°50'919.0
2017-Aug-12 23:00N 35°27' W 126°59'1019.2
2017-Aug-12 22:30N 35°33' W 127°09'1319.2
2017-Aug-12 21:50N 35°40' W 127°22'2319.0
2017-Aug-12 20:36N 35°54' W 127°45'219.2
2017-Aug-12 20:30N 35°55' W 127°48'1019.0
2017-Aug-12 19:58N 36°00' W 127°58'919.0
2017-Aug-12 19:28N 36°06' W 128°07'3519.2
2017-Aug-12 17:40N 36°26' W 128°43'319.4
2017-Aug-12 17:30N 36°28' W 128°46'1219.3
2017-Aug-12 16:52N 36°35' W 128°58'819.4
2017-Aug-12 16:28N 36°39' W 129°06'919.5
2017-Aug-12 16:00N 36°45' W 129°15'1919.5
2017-Aug-12 15:01N 36°56' W 129°34'018.9
2017-Aug-12 15:00N 36°56' W 129°35'1019.6
2017-Aug-12 14:30N 37°02' W 129°45'  
Track history (hours):
 
Tides and Currents Weather Stations Pressure Air Temp Water Temp Dewpoint Dewpoint Depression Visibility Wind Speed Wind Dir Waves Ship Positions

CSCL Long Beach

Last reported at 2017-Aug-19 12:13 UTC. Time now 2017-Aug-19 13:17 UTC.
Position N 38°34' W 124°05'.

Length 336.7 m; beam 45.6 m; draft 15 m.

Type: Ship. MMSI: 477883900.

Date/timePositionNaut miles runAvg speedWind from/ knotsBaromVisibWave heightAir tempDewpointWater temp
2017-Aug-19 12:13N 38°34' W 124°05'312.6
2017-Aug-19 12:00N 38°31' W 124°04'713.0
2017-Aug-19 11:30N 38°25' W 124°01'713.2
2017-Aug-19 11:00N 38°19' W 123°59'713.3
2017-Aug-19 10:30N 38°13' W 123°57'713.5
2017-Aug-19 10:00N 38°06' W 123°54'713.3
2017-Aug-19 09:30N 37°60' W 123°52'713.0
2017-Aug-19 09:00N 37°53' W 123°50'713.5
2017-Aug-19 08:30N 37°47' W 123°48'713.5
2017-Aug-19 08:00N 37°40' W 123°45'713.3
2017-Aug-19 07:30N 37°34' W 123°43'713.1
2017-Aug-19 07:00N 37°28' W 123°41'612.9
2017-Aug-19 06:30N 37°21' W 123°39'613.0
2017-Aug-19 06:00N 37°15' W 123°37'612.9
2017-Aug-19 05:30N 37°09' W 123°35'812.6
2017-Aug-19 04:51N 37°01' W 123°30'513.5
2017-Aug-19 04:30N 36°58' W 123°27'713.5
2017-Aug-19 04:00N 36°53' W 123°21'713.3
2017-Aug-19 03:29N 36°48' W 123°15'613.4
2017-Aug-19 03:00N 36°43' W 123°10'713.4
2017-Aug-19 02:30N 36°38' W 123°05'713.2
2017-Aug-19 02:00N 36°33' W 122°60'712.9
2017-Aug-19 01:30N 36°27' W 122°55'612.8
2017-Aug-19 01:00N 36°22' W 122°50'712.9
2017-Aug-19 00:28N 36°17' W 122°44'613.0
2017-Aug-19 00:00N 36°12' W 122°39'612.6
2017-Aug-18 23:30N 36°07' W 122°35'612.5
2017-Aug-18 23:00N 36°03' W 122°30'612.4
2017-Aug-18 22:30N 35°58' W 122°25'812.7
2017-Aug-18 21:52N 35°52' W 122°18'1013.0
2017-Aug-18 21:07N 35°44' W 122°11'213.2
2017-Aug-18 21:00N 35°43' W 122°10'613.1
2017-Aug-18 20:30N 35°38' W 122°05'813.4
2017-Aug-18 19:56N 35°32' W 121°58'613.2
2017-Aug-18 19:30N 35°28' W 121°54'2013.2
2017-Aug-18 18:01N 35°13' W 121°39'413.3
2017-Aug-18 17:43N 35°10' W 121°35'413.3
2017-Aug-18 17:25N 35°07' W 121°32'613.5
2017-Aug-18 16:59N 35°02' W 121°28'713.3
2017-Aug-18 16:30N 34°57' W 121°23'713.4
2017-Aug-18 16:00N 34°52' W 121°18'713.5
2017-Aug-18 15:30N 34°47' W 121°12'713.2
2017-Aug-18 15:00N 34°42' W 121°07'713.0
2017-Aug-18 14:29N 34°36' W 121°02'1313.3
2017-Aug-18 13:30N 34°27' W 120°52'510.1
2017-Aug-18 13:00N 34°25' W 120°46'5 9.5
2017-Aug-18 12:28N 34°24' W 120°40'5 9.8
2017-Aug-18 11:59N 34°22' W 120°34'5 9.9
2017-Aug-18 11:30N 34°21' W 120°29'5 9.7
2017-Aug-18 11:00N 34°20' W 120°23'5 9.5
2017-Aug-18 10:30N 34°19' W 120°17'5 9.6
2017-Aug-18 10:00N 34°17' W 120°12'5 9.7
2017-Aug-18 09:30N 34°16' W 120°06'5 9.8
2017-Aug-18 09:00N 34°15' W 120°00'5 9.7
2017-Aug-18 08:30N 34°14' W 119°55'5 9.5
2017-Aug-18 08:01N 34°12' W 119°49'5 9.6
2017-Aug-18 07:30N 34°11' W 119°44'5 9.6
2017-Aug-18 07:00N 34°10' W 119°38'5 9.3
2017-Aug-18 06:30N 34°08' W 119°33'5 9.7
2017-Aug-18 06:00N 34°07' W 119°27'5 9.2
2017-Aug-18 05:30N 34°06' W 119°22'5 9.9
2017-Aug-18 05:00N 34°04' W 119°16'510.2
2017-Aug-18 04:30N 34°02' W 119°11'510.7
2017-Aug-18 04:00N 33°59' W 119°05'511.0
2017-Aug-18 03:30N 33°57' W 118°59'510.6
2017-Aug-18 03:00N 33°54' W 118°54'510.8
2017-Aug-18 02:30N 33°52' W 118°48'510.7
2017-Aug-18 02:00N 33°49' W 118°42'510.4
2017-Aug-18 01:30N 33°46' W 118°37'510.6
2017-Aug-18 01:00N 33°43' W 118°32'611.4
2017-Aug-18 00:30N 33°41' W 118°26'510.8
2017-Aug-18 00:00N 33°38' W 118°20'510.8
2017-Aug-17 23:30N 33°38' W 118°13'4 8.7
2017-Aug-17 23:00N 33°42' W 118°11'2 4.4
2017-Aug-17 22:30N 33°44' W 118°12'0 0.1
2017-Aug-17 21:57N 33°44' W 118°12'0 0.0
2017-Aug-17 21:30N 33°44' W 118°12'0 0.0
2017-Aug-17 21:00N 33°44' W 118°12'0 0.0
2017-Aug-17 20:30N 33°44' W 118°12'0 0.0
2017-Aug-17 20:00N 33°44' W 118°12'0 0.0
2017-Aug-17 19:30N 33°44' W 118°12'0 0.0
2017-Aug-17 18:51N 33°44' W 118°12'0 0.0
2017-Aug-17 18:30N 33°44' W 118°12'0 0.0
2017-Aug-17 17:57N 33°44' W 118°12'0 0.0
2017-Aug-17 17:21N 33°44' W 118°12'0 0.0
2017-Aug-17 17:00N 33°44' W 118°12'0 0.0
2017-Aug-17 16:30N 33°44' W 118°12'0 0.0
2017-Aug-17 16:00N 33°44' W 118°12'0 0.0
2017-Aug-17 15:30N 33°44' W 118°12'0 0.0
2017-Aug-17 14:51N 33°44' W 118°12'0 0.0
2017-Aug-17 14:30N 33°44' W 118°12'0 0.0
2017-Aug-17 14:00N 33°44' W 118°12'0 0.0
2017-Aug-17 13:27N 33°44' W 118°12'0 0.0
2017-Aug-17 13:00N 33°44' W 118°12'0 0.0
2017-Aug-17 12:27N 33°44' W 118°12'0 0.0
2017-Aug-17 12:00N 33°44' W 118°12'0 0.0
2017-Aug-17 11:30N 33°44' W 118°12'0 0.0
2017-Aug-17 10:57N 33°44' W 118°12'0 0.0
2017-Aug-17 10:30N 33°44' W 118°12'0 0.0
2017-Aug-17 10:00N 33°44' W 118°12'0 0.0
2017-Aug-17 09:30N 33°44' W 118°12'0 0.0
2017-Aug-17 08:54N 33°44' W 118°12'0 0.0
2017-Aug-17 08:27N 33°44' W 118°12'0 0.0
2017-Aug-17 08:00N 33°44' W 118°12'0 0.0
2017-Aug-17 07:30N 33°44' W 118°12'0 0.0
2017-Aug-17 06:57N 33°44' W 118°12'0 0.0
2017-Aug-17 06:30N 33°44' W 118°12'0 0.0
2017-Aug-17 06:00N 33°44' W 118°12'0 0.0
2017-Aug-17 05:30N 33°44' W 118°12'0 0.0
2017-Aug-17 04:57N 33°44' W 118°12'0 0.0
2017-Aug-17 04:27N 33°44' W 118°12'0 0.0
2017-Aug-17 04:00N 33°44' W 118°12'0 0.0
2017-Aug-17 03:30N 33°44' W 118°12'0 0.0
2017-Aug-17 03:00N 33°44' W 118°12'0 0.0
2017-Aug-17 02:30N 33°44' W 118°12'0 0.0
2017-Aug-17 02:00N 33°44' W 118°12'0 0.0
2017-Aug-17 01:30N 33°44' W 118°12'0 0.0
2017-Aug-17 01:00N 33°44' W 118°12'0 0.0
2017-Aug-17 00:30N 33°44' W 118°12'0 0.0
2017-Aug-16 23:57N 33°44' W 118°12'0 0.0
2017-Aug-16 23:21N 33°44' W 118°12'0 0.0
2017-Aug-16 23:00N 33°44' W 118°12'0 0.0
2017-Aug-16 22:30N 33°44' W 118°12'0 0.0
2017-Aug-16 21:57N 33°44' W 118°12'0 0.0
2017-Aug-16 21:27N 33°44' W 118°12'0 0.0
2017-Aug-16 20:57N 33°44' W 118°12'0 0.0
2017-Aug-16 20:27N 33°44' W 118°12'0 0.0
2017-Aug-16 19:12N 33°44' W 118°12'0 0.1
2017-Aug-16 19:00N 33°44' W 118°12'0 0.0
2017-Aug-16 18:27N 33°44' W 118°12'0 0.0
2017-Aug-16 17:39N 33°44' W 118°12'0 0.0
2017-Aug-16 17:09N 33°44' W 118°12'0 0.0
2017-Aug-16 16:57N 33°44' W 118°12'0 0.0
2017-Aug-16 16:15N 33°44' W 118°12'0 0.0
2017-Aug-16 15:57N 33°44' W 118°12'0 0.0
2017-Aug-16 15:27N 33°44' W 118°12'0 0.0
2017-Aug-16 14:57N 33°44' W 118°12'0 0.0
2017-Aug-16 14:30N 33°44' W 118°12'0 0.0
2017-Aug-16 13:57N 33°44' W 118°12'0 0.0
2017-Aug-16 13:30N 33°44' W 118°12'0 0.0
2017-Aug-16 13:00N 33°44' W 118°12'0 0.0
2017-Aug-16 12:30N 33°44' W 118°12'0 0.0
2017-Aug-16 12:00N 33°44' W 118°12'0 0.0
2017-Aug-16 11:27N 33°44' W 118°12'0 0.0
2017-Aug-16 11:00N 33°44' W 118°12'0 0.0
2017-Aug-16 10:30N 33°44' W 118°12'0 0.0
2017-Aug-16 09:54N 33°44' W 118°12'0 0.0
2017-Aug-16 09:30N 33°44' W 118°12'0 0.0
2017-Aug-16 09:00N 33°44' W 118°12'0 0.0
2017-Aug-16 08:30N 33°44' W 118°12'0 0.0
2017-Aug-16 08:00N 33°44' W 118°12'0 0.0
2017-Aug-16 07:27N 33°44' W 118°12'0 0.0
2017-Aug-16 06:42N 33°44' W 118°12'0 0.0
2017-Aug-16 06:30N 33°44' W 118°12'0 0.0
2017-Aug-16 05:57N 33°44' W 118°12'0 0.0
2017-Aug-16 05:30N 33°44' W 118°12'0 0.0
2017-Aug-16 05:00N 33°44' W 118°12'0 0.0
2017-Aug-16 04:30N 33°44' W 118°12'0 0.0
2017-Aug-16 04:00N 33°44' W 118°12'0 0.0
2017-Aug-16 03:30N 33°44' W 118°12'0 0.0
2017-Aug-16 03:00N 33°44' W 118°12'0 0.0
2017-Aug-16 02:30N 33°44' W 118°12'0 0.0
2017-Aug-16 02:00N 33°44' W 118°12'0 0.0
2017-Aug-16 01:30N 33°44' W 118°12'0 0.0
2017-Aug-16 01:00N 33°44' W 118°12'0 0.0
2017-Aug-16 00:30N 33°44' W 118°12'0 0.0
2017-Aug-16 00:00N 33°44' W 118°12'0 0.0
2017-Aug-15 23:18N 33°44' W 118°12'0 0.0
2017-Aug-15 23:00N 33°44' W 118°12'0 0.0
2017-Aug-15 21:51N 33°44' W 118°12'0 0.0
2017-Aug-15 21:24N 33°44' W 118°12'0 0.0
2017-Aug-15 21:00N 33°44' W 118°12'0 0.0
2017-Aug-15 20:27N 33°44' W 118°12'0 0.0
2017-Aug-15 20:00N 33°44' W 118°12'0 0.1
2017-Aug-15 19:21N 33°44' W 118°12'0 0.1
2017-Aug-15 18:57N 33°44' W 118°12'0 0.0
2017-Aug-15 18:27N 33°44' W 118°12'0 0.0
2017-Aug-15 18:00N 33°44' W 118°12'0 0.1
2017-Aug-15 17:27N 33°44' W 118°12'0 0.1
2017-Aug-15 17:00N 33°44' W 118°12'0 0.0
2017-Aug-15 16:27N 33°44' W 118°12'0 0.0
2017-Aug-15 16:00N 33°44' W 118°12'0 0.0
2017-Aug-15 15:30N 33°44' W 118°12'0 0.0
2017-Aug-15 14:06N 33°44' W 118°12'0 0.1
2017-Aug-15 14:00N 33°44' W 118°12'0 0.0
2017-Aug-15 12:30N 33°44' W 118°12'0 0.0
2017-Aug-15 11:51N 33°44' W 118°12'0 0.0
2017-Aug-15 11:18N 33°44' W 118°12'0 0.0
2017-Aug-15 10:51N 33°44' W 118°12'0 0.0
2017-Aug-15 10:30N 33°44' W 118°12'0 0.0
2017-Aug-15 09:57N 33°44' W 118°12'0 0.0
2017-Aug-15 09:27N 33°44' W 118°12'0 0.0
2017-Aug-15 08:45N 33°44' W 118°12'0 0.0
2017-Aug-15 08:27N 33°44' W 118°12'0 0.0
2017-Aug-15 07:45N 33°44' W 118°12'0 0.0
2017-Aug-15 06:39N 33°44' W 118°12'0 0.0
2017-Aug-15 06:27N 33°44' W 118°12'0 0.0
2017-Aug-15 05:57N 33°44' W 118°12'0 0.0
2017-Aug-15 05:27N 33°44' W 118°12'0 0.0
2017-Aug-15 04:57N 33°44' W 118°12'0 0.0
2017-Aug-15 04:30N 33°44' W 118°12'0 0.0
2017-Aug-15 03:57N 33°44' W 118°12'0 0.0
2017-Aug-15 03:21N 33°44' W 118°12'0 0.0
2017-Aug-15 02:51N 33°44' W 118°12'0 0.0
2017-Aug-15 02:21N 33°44' W 118°12'0 0.0
2017-Aug-15 01:57N 33°44' W 118°12'0 0.0
2017-Aug-15 01:30N 33°44' W 118°12'0 0.0
2017-Aug-15 01:00N 33°44' W 118°12'0 0.0
2017-Aug-15 00:30N 33°44' W 118°12'0 0.0
2017-Aug-15 00:00N 33°44' W 118°12'0 0.0
2017-Aug-14 23:30N 33°44' W 118°12'0 0.0
2017-Aug-14 23:00N 33°44' W 118°12'0 0.0
2017-Aug-14 22:30N 33°44' W 118°12'0 0.0
2017-Aug-14 22:00N 33°44' W 118°12'0 0.0
2017-Aug-14 21:30N 33°44' W 118°12'0 0.0
2017-Aug-14 21:00N 33°44' W 118°12'0 0.0
2017-Aug-14 20:30N 33°44' W 118°12'0 0.0
2017-Aug-14 20:00N 33°44' W 118°12'0 0.0
2017-Aug-14 19:30N 33°44' W 118°12'0 0.0
2017-Aug-14 19:00N 33°44' W 118°12'0 0.0
2017-Aug-14 18:30N 33°44' W 118°12'0 0.0
2017-Aug-14 18:00N 33°44' W 118°12'0 0.0
2017-Aug-14 17:27N 33°44' W 118°12'0 0.0
2017-Aug-14 17:00N 33°44' W 118°12'0 0.0
2017-Aug-14 16:30N 33°44' W 118°12'0 0.0
2017-Aug-14 16:00N 33°44' W 118°12'0 0.0
2017-Aug-14 15:27N 33°44' W 118°12'0 0.0
2017-Aug-14 14:57N 33°44' W 118°12'0 0.0
2017-Aug-14 14:21N 33°44' W 118°12'0 0.0
2017-Aug-14 14:00N 33°44' W 118°12'0 0.0
2017-Aug-14 13:30N 33°44' W 118°12'0 0.0
2017-Aug-14 13:00N 33°44' W 118°12'0 0.0
2017-Aug-14 12:30N 33°44' W 118°12'1 1.1
2017-Aug-14 12:00N 33°44' W 118°12'3 6.4
2017-Aug-14 11:30N 33°41' W 118°11'4 7.9
2017-Aug-14 11:00N 33°37' W 118°12'4 7.1
2017-Aug-14 10:30N 33°35' W 118°14'2 4.9
2017-Aug-14 10:00N 33°33' W 118°17'0 0.4
2017-Aug-14 09:30N 33°33' W 118°17'3 6.3
2017-Aug-14 09:00N 33°35' W 118°20'4 8.3
2017-Aug-14 08:30N 33°37' W 118°24'4 8.0
2017-Aug-14 08:00N 33°40' W 118°28'4 7.8
2017-Aug-14 07:30N 33°42' W 118°32'4 7.7
2017-Aug-14 07:00N 33°44' W 118°36'4 7.9
2017-Aug-14 06:30N 33°46' W 118°40'4 7.9
2017-Aug-14 06:00N 33°47' W 118°44'4 8.2
2017-Aug-14 05:30N 33°49' W 118°49'4 8.3
2017-Aug-14 05:00N 33°51' W 118°53'4 8.3
2017-Aug-14 04:30N 33°53' W 118°57'4 8.5
2017-Aug-14 04:00N 33°55' W 119°02'4 8.7
2017-Aug-14 03:30N 33°58' W 119°06'5 9.9
2017-Aug-14 03:00N 34°00' W 119°12'510.2
2017-Aug-14 02:30N 34°02' W 119°17'510.0
2017-Aug-14 02:00N 34°04' W 119°23'5 9.9
2017-Aug-14 01:30N 34°05' W 119°29'5 9.6
2017-Aug-14 01:00N 34°06' W 119°34'5 9.6
2017-Aug-14 00:30N 34°08' W 119°40'5 9.7
2017-Aug-14 00:00N 34°09' W 119°45'5 9.5
2017-Aug-13 23:30N 34°10' W 119°51'5 9.7
2017-Aug-13 23:00N 34°11' W 119°57'5 9.7
2017-Aug-13 22:30N 34°13' W 120°02'5 9.6
2017-Aug-13 22:00N 34°14' W 120°08'5 9.6
2017-Aug-13 21:30N 34°15' W 120°14'5 9.4
2017-Aug-13 21:00N 34°17' W 120°19'5 9.7
2017-Aug-13 20:30N 34°18' W 120°25'5 9.5
2017-Aug-13 20:00N 34°19' W 120°30'5 9.1
2017-Aug-13 19:30N 34°20' W 120°36'5 9.3
2017-Aug-13 19:00N 34°22' W 120°41'5 9.2
2017-Aug-13 18:30N 34°23' W 120°46'5 9.5
2017-Aug-13 18:00N 34°24' W 120°52'5 9.7
2017-Aug-13 17:28N 34°24' W 120°58'4 9.8
2017-Aug-13 17:00N 34°25' W 121°04'3 6.3
2017-Aug-13 16:30N 34°25' W 121°08'1 2.0
2017-Aug-13 16:00N 34°24' W 121°08'917.0
2017-Aug-13 15:30N 34°25' W 121°18'917.8
2017-Aug-13 15:00N 34°25' W 121°29'917.9
2017-Aug-13 14:31N 34°25' W 121°40'918.2
2017-Aug-13 14:00N 34°25' W 121°51'918.2
2017-Aug-13 13:31N 34°25' W 122°02'1017.9
2017-Aug-13 12:57N 34°26' W 122°14'817.9
2017-Aug-13 12:30N 34°26' W 122°23'918.1
2017-Aug-13 12:00N 34°26' W 122°35'918.0
2017-Aug-13 11:30N 34°26' W 122°45'918.1
2017-Aug-13 11:00N 34°26' W 122°56'918.1
2017-Aug-13 10:30N 34°26' W 123°08'918.0
2017-Aug-13 09:59N 34°26' W 123°19'817.8
2017-Aug-13 09:30N 34°26' W 123°29'918.0
2017-Aug-13 09:00N 34°26' W 123°40'1017.8
2017-Aug-13 08:25N 34°26' W 123°53'717.8
2017-Aug-13 08:00N 34°26' W 124°01'917.7
2017-Aug-13 07:30N 34°26' W 124°12'917.6
2017-Aug-13 07:00N 34°26' W 124°23'1017.8
2017-Aug-13 06:27N 34°27' W 124°35'817.6
2017-Aug-13 06:01N 34°27' W 124°44'917.9
2017-Aug-13 05:29N 34°27' W 124°56'917.9
2017-Aug-13 04:58N 34°28' W 125°07'818.3
2017-Aug-13 04:30N 34°28' W 125°17'1218.3
2017-Aug-13 03:52N 34°34' W 125°29'1518.5
2017-Aug-13 03:02N 34°43' W 125°45'618.1
2017-Aug-13 02:41N 34°46' W 125°51'918.1
2017-Aug-13 02:11N 34°51' W 126°00'618.5
2017-Aug-13 01:51N 34°55' W 126°06'1419.1
2017-Aug-13 01:09N 35°03' W 126°19'1519.0
2017-Aug-13 00:23N 35°12' W 126°33'1418.9
2017-Aug-12 23:39N 35°20' W 126°47'319.2
2017-Aug-12 23:29N 35°22' W 126°50'919.0
2017-Aug-12 23:00N 35°27' W 126°59'1019.2
2017-Aug-12 22:30N 35°33' W 127°09'1319.2
2017-Aug-12 21:50N 35°40' W 127°22'2319.0
2017-Aug-12 20:36N 35°54' W 127°45'219.2
2017-Aug-12 20:30N 35°55' W 127°48'1019.0
2017-Aug-12 19:58N 36°00' W 127°58'919.0
2017-Aug-12 19:28N 36°06' W 128°07'3519.2
2017-Aug-12 17:40N 36°26' W 128°43'319.4
2017-Aug-12 17:30N 36°28' W 128°46'1219.3
2017-Aug-12 16:52N 36°35' W 128°58'819.4
2017-Aug-12 16:28N 36°39' W 129°06'919.5
2017-Aug-12 16:00N 36°45' W 129°15'1919.5
2017-Aug-12 15:01N 36°56' W 129°34'018.9
2017-Aug-12 15:00N 36°56' W 129°35'1019.6
2017-Aug-12 14:30N 37°02' W 129°45'  

Dump ship's entire track history